.
WxDataArchive / Data Records for 2013-04-18
2013-04-17 April 2013 2013-04-19

Data Records for Thursday, 18 April 2013

Time	Temp	Chill	HIndex	Humid	Dewpt	 Wind 	HiWind	WindDir	Rain 	Barom 
-----	----	-----	------	-----	-----	------	------	-------	-----	----- 
00:00	45.5	42.3	45.5	80	39.7	6	12	112	0.00	29.970 
00:05	45.4	42.8	45.4	81	39.9	5	11	90	0.00	29.970 
00:10	45.4	42.8	45.4	81	39.9	5	14	90	0.00	29.970 
00:15	45.2	42.0	45.2	80	39.4	6	12	112	0.00	29.962 
00:20	45.2	42.0	45.2	80	39.4	6	15	90	0.00	29.962 
00:25	45.2	43.3	45.2	80	39.4	4	10	90	0.00	29.962 
00:30	45.2	45.2	45.2	80	39.4	3	9	112	0.00	29.948 
00:35	45.2	43.3	45.2	79	39.1	4	12	112	0.00	29.948 
00:40	45.2	45.2	45.2	79	39.1	3	9	90	0.00	29.948 
00:45	45.4	42.8	45.4	78	38.9	5	12	90	0.00	29.937 
00:50	45.4	43.6	45.4	77	38.6	4	9	90	0.00	29.937 
00:55	45.4	43.6	45.4	77	38.6	4	10	112	0.00	29.937 
01:00	45.2	43.3	45.2	77	38.4	4	7	90	0.00	29.929 
01:05	45.2	43.3	45.2	77	38.4	4	9	90	0.00	29.929 
01:10	45.1	43.2	45.1	77	38.3	4	11	90	0.00	29.929 
01:15	45.1	42.5	45.1	77	38.3	5	10	90	0.00	29.916 
01:20	45.1	42.5	45.1	76	38.0	5	11	90	0.00	29.916 
01:25	45.1	42.5	45.1	77	38.3	5	10	90	0.00	29.916 
01:30	45.1	43.2	45.1	77	38.3	4	7	90	0.00	29.911 
01:35	45.1	43.2	45.1	77	38.3	4	9	90	0.00	29.911 
01:40	45.1	45.1	45.1	77	38.3	3	6	112	0.00	29.911 
01:45	45.1	45.1	45.1	78	38.7	3	6	90	0.00	29.906 
01:50	45.1	45.1	45.1	78	38.7	3	6	90	0.00	29.906 
01:55	45.1	45.1	45.1	79	39.0	3	5	90	0.00	29.906 
02:00	45.1	43.2	45.1	79	39.0	4	7	90	0.00	29.896 
02:05	45.2	45.2	45.2	79	39.1	3	6	90	0.00	29.896 
02:10	45.2	45.2	45.2	79	39.1	3	9	90	0.00	29.896 
02:15	45.2	45.2	45.2	79	39.1	3	6	112	0.00	29.884 
02:20	45.4	45.4	45.4	79	39.3	3	7	90	0.00	29.884 
02:25	45.4	45.4	45.4	80	39.6	3	6	90	0.00	29.884 
02:30	45.4	45.4	45.4	80	39.6	3	6	90	0.00	29.869 
02:35	45.4	45.4	45.4	81	39.9	3	9	90	0.00	29.869 
02:40	45.4	45.4	45.4	81	39.9	2	5	90	0.00	29.869 
02:45	45.4	45.4	45.4	81	39.9	3	7	112	0.00	29.865 
02:50	45.4	45.4	45.4	81	39.9	2	7	90	0.00	29.865 
02:55	45.4	45.4	45.4	82	40.2	3	6	90	0.00	29.865 
03:00	45.4	45.4	45.4	83	40.5	3	7	90	0.00	29.836 
03:05	45.5	45.5	45.5	83	40.6	3	5	90	0.00	29.836 
03:10	45.5	45.5	45.5	83	40.6	3	9	90	0.00	29.836 
03:15	45.5	45.5	45.5	84	41.0	2	7	112	0.00	29.819 
03:20	45.5	43.7	45.5	84	41.0	4	6	90	0.00	29.819 
03:25	45.5	45.5	45.5	84	41.0	3	7	90	0.00	29.819 
03:30	45.5	45.5	45.5	84	41.0	3	6	112	0.00	29.816 
03:35	45.5	45.5	45.5	85	41.3	3	6	90	0.00	29.816 
03:40	45.5	45.5	45.5	85	41.3	2	6	90	0.00	29.816 
03:45	45.5	45.5	45.5	85	41.3	3	5	90	0.00	29.803 
03:50	45.5	45.5	45.5	86	41.6	2	5	90	0.00	29.803 
03:55	45.5	45.5	45.5	86	41.6	2	5	90	0.00	29.803 
04:00	45.5	45.5	45.5	86	41.6	2	5	90	0.00	29.791 
04:05	45.5	45.5	45.5	87	41.9	2	5	90	0.00	29.791 
04:10	45.5	45.5	45.5	87	41.9	2	4	90	0.00	29.791 
04:15	45.5	45.5	45.5	88	42.2	1	4	90	0.00	29.788 
04:20	45.5	45.5	45.5	88	42.2	1	4	90	0.00	29.788 
04:25	45.5	45.5	45.5	88	42.2	1	3	90	0.00	29.788 
04:30	45.5	45.5	45.5	88	42.2	0	3	90	0.00	29.794 
04:35	45.5	45.5	45.5	88	42.2	0	2	90	0.00	29.794 
04:40	45.7	45.7	45.7	88	42.4	1	2	90	0.00	29.794 
04:45	45.7	45.7	45.7	89	42.6	1	3	90	0.00	29.788 
04:50	45.8	45.8	45.8	89	42.7	1	3	90	0.00	29.788 
04:55	46.0	46.0	46.0	89	42.9	0	2	90	0.00	29.788 
05:00	46.1	46.1	46.1	90	43.3	1	3	90	0.00	29.780 
05:05	46.1	46.1	46.1	90	43.3	1	2	90	0.00	29.780 
05:10	46.1	46.1	46.1	90	43.3	1	3	90	0.00	29.780 
05:15	46.2	46.2	46.2	90	43.4	1	3	90	0.00	29.770 
05:20	46.5	46.5	46.5	91	44.0	2	3	90	0.00	29.770 
05:25	46.7	46.7	46.7	91	44.2	1	3	90	0.00	29.770 
05:30	46.8	46.8	46.8	91	44.3	0	3	90	0.00	29.764 
05:35	47.1	47.1	47.1	91	44.6	1	2	90	0.00	29.764 
05:40	47.4	47.4	47.4	92	45.2	1	3	90	0.00	29.764 
05:45	47.7	47.7	47.7	92	45.5	0	2	90	0.00	29.756 
05:50	47.9	47.9	47.9	92	45.7	0	2	90	0.00	29.756 
05:55	48.0	48.0	48.0	92	45.8	0	2	90	0.00	29.756 
06:00	48.0	48.0	48.0	92	45.8	1	2	90	0.00	29.752 
06:05	48.2	48.2	48.2	92	46.0	0	3	90	0.00	29.752 
06:10	48.2	48.2	48.2	92	46.0	0	0	---	0.00	29.752 
06:15	48.2	48.2	48.2	92	46.0	0	0	---	0.00	29.752 
06:20	48.0	48.0	48.0	92	45.8	0	2	90	0.00	29.752 
06:25	47.9	47.9	47.9	92	45.7	0	3	90	0.00	29.752 
06:30	48.0	48.0	48.0	92	45.8	1	3	90	0.00	29.744 
06:35	48.0	48.0	48.0	92	45.8	0	2	90	0.00	29.744 
06:40	48.2	48.2	48.2	93	46.3	0	2	90	0.00	29.744 
06:45	48.2	48.2	48.2	93	46.3	0	2	90	0.00	29.736 
06:50	48.2	48.2	48.2	93	46.3	0	2	90	0.00	29.736 
06:55	48.2	48.2	48.2	93	46.3	0	1	90	0.00	29.736 
07:00	48.3	48.3	48.3	93	46.4	0	1	90	0.00	29.734 
07:05	48.6	48.6	48.6	93	46.7	0	1	90	0.00	29.734 
07:10	49.1	49.1	49.1	94	47.4	0	0	---	0.00	29.734 
07:15	49.8	49.8	49.8	95	48.4	0	2	90	0.00	29.734 
07:20	52.2	52.2	52.2	96	51.1	0	2	90	0.00	29.734 
07:25	54.4	54.4	54.4	96	53.3	0	2	90	0.00	29.734 
07:30	56.5	56.5	56.5	96	55.4	1	4	112	0.00	29.730 
07:35	58.3	58.3	58.3	96	57.2	2	4	112	0.00	29.730 
07:40	59.3	59.3	59.3	96	58.2	2	4	112	0.00	29.730 
07:45	59.9	59.9	59.9	95	58.5	2	11	90	0.00	29.725 
07:50	60.4	60.4	60.4	93	58.4	1	4	112	0.00	29.725 
07:55	60.9	60.9	60.9	93	58.9	1	6	90	0.00	29.725 
08:00	61.3	61.3	61.3	92	59.0	2	9	90	0.00	29.726 
08:05	61.6	61.6	61.6	90	58.6	2	6	112	0.00	29.726 
08:10	62.0	62.0	62.0	89	58.7	2	7	68	0.00	29.726 
08:15	62.4	62.4	62.4	88	58.8	3	8	90	0.00	29.723 
08:20	62.7	62.7	62.7	87	58.8	2	6	90	0.00	29.723 
08:25	63.4	63.4	63.4	86	59.1	4	7	90	0.00	29.723 
08:30	64.0	64.0	64.0	85	59.4	1	4	112	0.00	29.720 
08:35	64.5	64.5	64.5	84	59.6	2	6	90	0.00	29.720 
08:40	64.7	64.7	64.7	83	59.4	2	4	68	0.00	29.720 
08:45	65.0	65.0	65.0	83	59.7	3	7	90	0.00	29.707 
08:50	65.6	65.6	65.6	82	59.9	3	9	45	0.00	29.707 
08:55	66.1	66.1	66.1	81	60.1	2	7	68	0.00	29.707 
09:00	66.4	66.4	66.4	80	60.0	4	12	90	0.00	29.704 
09:05	66.9	66.9	66.9	80	60.5	3	7	68	0.01	29.704 
09:10	67.4	67.4	67.4	79	60.7	4	10	90	0.00	29.704 
09:15	67.9	67.9	67.9	79	61.1	3	9	45	0.00	29.695 
09:20	68.4	68.4	68.4	78	61.3	3	10	68	0.00	29.695 
09:25	68.6	68.6	68.6	78	61.5	3	9	68	0.00	29.695 
09:30	68.9	68.9	68.9	78	61.7	2	6	90	0.00	29.690 
09:35	69.3	69.3	69.3	77	61.8	4	12	90	0.00	29.690 
09:40	69.8	69.8	69.8	77	62.3	3	7	90	0.00	29.690 
09:45	70.3	70.3	70.3	77	62.7	3	10	22	0.00	29.674 
09:50	70.6	70.6	70.6	76	62.7	4	15	68	0.00	29.674 
09:55	71.1	71.1	71.1	76	63.1	4	10	90	0.00	29.674 
10:00	71.5	71.5	71.5	76	63.5	5	11	90	0.00	29.657 
10:05	71.8	71.8	71.8	75	63.4	5	12	90	0.00	29.657 
10:10	72.0	72.0	72.0	74	63.2	4	9	90	0.00	29.657 
10:15	72.3	72.3	72.3	74	63.5	4	15	90	0.00	29.653 
10:20	73.0	73.0	73.0	73	63.8	4	10	90	0.00	29.653 
10:25	73.2	73.2	73.2	73	64.0	5	12	90	0.00	29.653 
10:30	73.7	73.7	73.7	72	64.1	4	12	90	0.00	29.654 
10:35	73.7	73.7	73.7	71	63.7	4	13	90	0.00	29.654 
10:40	73.7	73.7	73.7	72	64.1	3	12	248	0.00	29.654 
10:45	73.5	73.5	73.5	72	63.9	3	16	0	0.00	29.658 
10:50	73.5	73.5	73.5	72	63.9	3	7	90	0.00	29.658 
10:55	73.9	73.9	73.9	72	64.3	5	14	90	0.00	29.658 
11:00	74.4	74.4	74.4	71	64.4	3	11	270	0.00	29.659 
11:05	74.7	74.7	74.7	70	64.2	2	7	248	0.00	29.659 
11:10	75.3	75.3	77.0	69	64.4	3	11	248	0.00	29.659 
11:15	75.1	75.1	76.9	68	63.8	4	13	248	0.00	29.655 
11:20	74.9	74.9	74.9	69	64.0	4	12	270	0.00	29.655 
11:25	74.7	74.7	74.7	69	63.8	5	12	248	0.00	29.655 
11:30	74.9	74.9	74.9	69	64.0	4	11	248	0.00	29.658 
11:35	74.9	74.9	74.9	69	64.0	3	11	248	0.00	29.658 
11:40	75.3	75.3	77.1	68	64.0	3	12	248	0.00	29.658 
11:45	75.8	75.8	77.7	66	63.6	5	14	248	0.00	29.654 
11:50	76.5	76.5	78.3	64	63.4	4	14	248	0.00	29.654 
11:55	76.7	76.7	78.5	65	64.0	4	15	248	0.00	29.654 
12:00	76.5	76.5	78.3	64	63.4	6	16	45	0.00	29.648 
12:05	76.5	76.5	78.3	64	63.4	5	15	90	0.00	29.648 
12:10	76.3	76.3	78.2	64	63.2	3	13	248	0.00	29.648 
12:15	76.3	76.3	78.2	62	62.3	4	14	248	0.00	29.646 
12:20	76.0	76.0	77.9	63	62.5	5	13	270	0.00	29.646 
12:25	75.8	75.8	77.7	64	62.7	3	11	248	0.00	29.646 
12:30	75.6	75.6	77.6	64	62.5	4	12	248	0.00	29.646 
12:35	75.4	75.4	77.4	64	62.4	5	11	248	0.00	29.646 
12:40	75.6	75.6	77.5	65	63.0	3	11	248	0.00	29.646 
12:45	75.4	75.4	77.4	64	62.4	5	14	292	0.00	29.640 
12:50	75.3	75.3	77.3	65	62.7	4	12	225	0.00	29.640 
12:55	75.3	75.3	77.4	64	62.3	4	15	270	0.00	29.640 
13:00	75.1	75.1	77.1	65	62.5	4	10	248	0.00	29.640 
13:05	74.7	74.7	74.7	65	62.1	5	15	270	0.00	29.640 
13:10	74.4	74.4	74.4	65	61.8	4	12	248	0.00	29.640 
13:15	74.2	74.2	74.2	65	61.7	4	16	248	0.00	29.627 
13:20	74.0	74.0	74.0	66	61.9	4	10	45	0.00	29.627 
13:25	73.9	73.9	73.9	66	61.8	3	11	248	0.00	29.627 
13:30	74.0	74.0	74.0	66	61.9	4	11	248	0.00	29.637 
13:35	74.0	74.0	74.0	64	61.0	5	10	248	0.00	29.637 
13:40	71.5	71.5	71.5	61	57.3	6	12	270	0.00	29.637 
13:45	68.9	68.9	68.9	68	57.9	3	6	248	0.00	29.671 
13:50	66.8	66.8	66.8	76	59.0	3	7	248	0.03	29.671 
13:55	64.8	64.8	64.8	81	58.8	3	5	270	0.01	29.671 
14:00	63.7	63.7	63.7	85	59.1	2	5	248	0.06	29.684 
14:05	62.9	62.9	62.9	88	59.3	2	7	248	0.01	29.684 
14:10	62.6	62.6	62.6	89	59.3	1	6	248	0.00	29.684 
14:15	62.4	62.4	62.4	90	59.4	1	3	248	0.01	29.684 
14:20	62.3	62.3	62.3	90	59.3	1	2	248	0.00	29.684 
14:25	62.1	62.1	62.1	91	59.4	1	4	248	0.02	29.684 
14:30	62.1	62.1	62.1	91	59.4	1	3	248	0.01	29.682 
14:35	62.1	62.1	62.1	92	59.7	0	3	248	0.01	29.682 
14:40	62.1	62.1	62.1	92	59.7	0	2	248	0.00	29.682 
14:45	62.3	62.3	62.3	92	59.9	0	2	248	0.00	29.678 
14:50	62.3	62.3	62.3	92	59.9	1	3	248	0.00	29.678 
14:55	62.3	62.3	62.3	92	59.9	1	4	248	0.00	29.678 
15:00	62.1	62.1	62.1	92	59.7	1	3	248	0.00	29.698 
15:05	62.0	62.0	62.0	92	59.6	1	3	248	0.00	29.698 
15:10	62.0	62.0	62.0	93	59.9	0	2	248	0.03	29.698 
15:15	62.1	62.1	62.1	93	60.0	0	4	248	0.00	29.693 
15:20	62.1	62.1	62.1	93	60.0	0	2	248	0.00	29.693 
15:25	62.1	62.1	62.1	93	60.0	0	2	248	0.00	29.693 
15:30	62.0	62.0	62.0	93	59.9	0	1	248	0.02	29.697 
15:35	62.0	62.0	62.0	93	59.9	0	3	248	0.02	29.697 
15:40	61.8	61.8	61.8	93	59.8	0	2	248	0.03	29.697 
15:45	61.8	61.8	61.8	93	59.8	1	3	248	0.01	29.713 
15:50	61.6	61.6	61.6	93	59.6	1	5	248	0.01	29.713 
15:55	61.5	61.5	61.5	93	59.5	0	1	248	0.01	29.713 
16:00	61.5	61.5	61.5	94	59.8	0	2	248	0.03	29.699 
16:05	61.3	61.3	61.3	94	59.6	0	2	248	0.02	29.699 
16:10	61.3	61.3	61.3	94	59.6	1	3	248	0.03	29.699 
16:15	61.2	61.2	61.2	94	59.5	1	5	248	0.06	29.705 
16:20	61.2	61.2	61.2	94	59.5	1	4	248	0.02	29.705 
16:25	61.2	61.2	61.2	94	59.5	1	4	248	0.07	29.705 
16:30	61.0	61.0	61.0	94	59.3	1	4	248	0.04	29.703 
16:35	60.9	60.9	60.9	94	59.2	0	3	248	0.01	29.703 
16:40	60.9	60.9	60.9	94	59.2	0	2	248	0.01	29.703 
16:45	60.9	60.9	60.9	94	59.2	0	2	248	0.01	29.689 
16:50	60.9	60.9	60.9	94	59.2	1	4	248	0.00	29.689 
16:55	60.7	60.7	60.7	95	59.3	0	1	248	0.04	29.689 
17:00	60.7	60.7	60.7	95	59.3	0	2	248	0.03	29.699 
17:05	60.7	60.7	60.7	95	59.3	1	4	90	0.01	29.699 
17:10	60.5	60.5	60.5	95	59.1	0	2	90	0.00	29.699 
17:15	60.5	60.5	60.5	95	59.1	0	2	90	0.01	29.682 
17:20	60.4	60.4	60.4	95	59.0	0	1	90	0.00	29.682 
17:25	60.4	60.4	60.4	95	59.0	0	1	90	0.01	29.682 
17:30	60.4	60.4	60.4	95	59.0	0	0	---	0.00	29.678 
17:35	60.4	60.4	60.4	95	59.0	0	1	90	0.00	29.678 
17:40	60.4	60.4	60.4	95	59.0	0	1	90	0.00	29.678 
17:45	60.4	60.4	60.4	95	59.0	0	2	90	0.00	29.682 
17:50	60.4	60.4	60.4	95	59.0	0	2	90	0.00	29.682 
17:55	60.2	60.2	60.2	95	58.8	0	3	90	0.00	29.682 
18:00	60.2	60.2	60.2	95	58.8	1	4	90	0.03	29.704 
18:05	60.2	60.2	60.2	95	58.8	0	1	90	0.02	29.704 
18:10	60.2	60.2	60.2	95	58.8	0	2	90	0.02	29.704 
18:15	60.1	60.1	60.1	95	58.7	1	2	90	0.04	29.695 
18:20	60.1	60.1	60.1	95	58.7	0	1	90	0.01	29.695 
18:25	59.9	59.9	59.9	95	58.5	0	1	90	0.02	29.695 
18:30	59.8	59.8	59.8	95	58.4	0	2	90	0.02	29.712 
18:35	59.8	59.8	59.8	95	58.4	0	2	90	0.05	29.712 
18:40	59.8	59.8	59.8	95	58.4	0	1	90	0.04	29.712 
18:45	59.6	59.6	59.6	95	58.2	0	2	90	0.05	29.702 
18:50	59.6	59.6	59.6	95	58.2	0	2	90	0.01	29.702 
18:55	59.6	59.6	59.6	95	58.2	0	2	90	0.03	29.702 
19:00	59.5	59.5	59.5	96	58.4	0	2	90	0.00	29.697 
19:05	59.5	59.5	59.5	96	58.4	1	3	225	0.02	29.697 
19:10	59.5	59.5	59.5	96	58.4	1	3	270	0.01	29.697 
19:15	59.5	59.5	59.5	96	58.4	0	2	270	0.01	29.680 
19:20	59.3	59.3	59.3	96	58.2	0	3	270	0.01	29.680 
19:25	59.3	59.3	59.3	96	58.2	0	2	270	0.00	29.680 
19:30	59.3	59.3	59.3	96	58.2	0	2	270	0.00	29.680 
19:35	59.2	59.2	59.2	96	58.1	0	3	270	0.00	29.680 
19:40	59.2	59.2	59.2	96	58.1	0	1	248	0.01	29.680 
19:45	59.2	59.2	59.2	96	58.1	0	1	248	0.01	29.666 
19:50	59.0	59.0	59.0	96	57.9	0	2	248	0.00	29.666 
19:55	59.0	59.0	59.0	96	57.9	0	1	22	0.01	29.666 
20:00	59.0	59.0	59.0	96	57.9	0	1	22	0.01	29.673 
20:05	58.9	58.9	58.9	96	57.8	0	1	22	0.01	29.673 
20:10	58.9	58.9	58.9	96	57.8	0	2	22	0.00	29.673 
20:15	58.9	58.9	58.9	96	57.8	0	2	22	0.01	29.669 
20:20	58.7	58.7	58.7	96	57.6	0	2	22	0.01	29.669 
20:25	58.7	58.7	58.7	96	57.6	1	2	22	0.01	29.669 
20:30	58.7	58.7	58.7	96	57.6	1	4	22	0.01	29.661 
20:35	58.7	58.7	58.7	96	57.6	2	3	112	0.01	29.661 
20:40	58.7	58.7	58.7	96	57.6	1	3	135	0.00	29.661 
20:45	58.7	58.7	58.7	96	57.6	0	2	90	0.01	29.653 
20:50	58.7	58.7	58.7	96	57.6	0	2	90	0.00	29.653 
20:55	58.6	58.6	58.6	96	57.5	0	2	90	0.01	29.653 
21:00	58.6	58.6	58.6	96	57.5	0	1	90	0.00	29.636 
21:05	58.6	58.6	58.6	96	57.5	0	1	90	0.00	29.636 
21:10	58.6	58.6	58.6	96	57.5	0	2	90	0.01	29.636 
21:15	58.6	58.6	58.6	96	57.5	1	3	90	0.02	29.644 
21:20	58.6	58.6	58.6	96	57.5	1	5	90	0.01	29.644 
21:25	58.6	58.6	58.6	96	57.5	1	4	112	0.00	29.644 
21:30	58.6	58.6	58.6	96	57.5	1	3	112	0.01	29.645 
21:35	58.7	58.7	58.7	96	57.6	1	3	112	0.01	29.645 
21:40	58.7	58.7	58.7	96	57.6	1	4	90	0.02	29.645 
21:45	58.7	58.7	58.7	96	57.6	1	3	90	0.01	29.633 
21:50	58.7	58.7	58.7	96	57.6	0	3	90	0.01	29.633 
21:55	58.7	58.7	58.7	96	57.6	1	3	158	0.01	29.633 
22:00	58.7	58.7	58.7	96	57.6	1	3	135	0.00	29.616 
22:05	58.7	58.7	58.7	96	57.6	0	2	135	0.00	29.616 
22:10	58.7	58.7	58.7	96	57.6	0	1	135	0.01	29.616 
22:15	58.7	58.7	58.7	96	57.6	0	1	135	0.00	29.599 
22:20	58.6	58.6	58.6	96	57.5	0	0	---	0.00	29.599 
22:25	58.6	58.6	58.6	96	57.5	0	0	---	0.01	29.599 
22:30	58.6	58.6	58.6	96	57.5	0	0	---	0.02	29.602 
22:35	58.6	58.6	58.6	96	57.5	0	1	135	0.02	29.602 
22:40	58.6	58.6	58.6	96	57.5	0	1	135	0.03	29.602 
22:45	58.7	58.7	58.7	96	57.6	0	2	135	0.02	29.611 
22:50	58.7	58.7	58.7	96	57.6	0	2	135	0.06	29.611 
22:55	58.7	58.7	58.7	96	57.6	1	3	135	0.01	29.611 
23:00	58.7	58.7	58.7	96	57.6	1	3	135	0.04	29.601 
23:05	58.7	58.7	58.7	96	57.6	1	4	135	0.02	29.601 
23:10	58.7	58.7	58.7	96	57.6	0	2	112	0.02	29.601 
23:15	58.7	58.7	58.7	96	57.6	0	5	112	0.03	29.581 
23:20	58.7	58.7	58.7	96	57.6	1	2	112	0.03	29.581 
23:25	58.7	58.7	58.7	96	57.6	0	2	112	0.01	29.581 
23:30	58.7	58.7	58.7	96	57.6	1	3	112	0.00	29.577 
23:35	58.7	58.7	58.7	96	57.6	0	2	112	0.02	29.577 
23:40	58.7	58.7	58.7	96	57.6	0	2	135	0.01	29.577 
23:45	58.7	58.7	58.7	96	57.6	0	2	135	0.00	29.550 
23:50	58.7	58.7	58.7	96	57.6	0	2	135	0.00	29.550 
23:55	58.7	58.7	58.7	96	57.6	0	2	135	0.01	29.550 

CoCoRaHS
IN-AL-39
A2 Web Hosting
Creative Commons License
GoDaddy
search engine by freefind advanced

loaded 2018-11-17 00:40:13 • last modified 2010-11-18 10:43:29
Privacy PolicyDisclaimer
• wx.awcolley.com is powered by PmWiki v.2002016 •
• all content (unless otherwise noted) © 2018 A W Colley